ASA1461 EDDM-LOWW
Flight info
| Callsign | ASA1461 |
|---|---|
| Flight time | 0h 29m |
| Altitude | 23000 |
| Route | BIBAG3W BIBAG Q104 AKIMA DCT MASUR MASUR3W |
| Aircraft | B738/M-SDE2E3FGHIRWXY/LB1 |
Departure
| Time | 2026-05-06 09:33 |
|---|---|
| Airport | Munich Airport (EDDM) |
Arrival
| Time | 2026-05-06 10:03 |
|---|---|
| Airport | Vienna International Airport (LOWW) |
| Time | Latitude | Longitude | Altitude | Speed | Heading |
|---|---|---|---|---|---|
| 2026-05-06 09:11 | 48.35278 | 11.78320 | 1474 ft | 0 kts | 83° |
| 2026-05-06 09:23 | 48.35278 | 11.78308 | 1474 ft | 2 kts | 91° |
| 2026-05-06 09:23 | 48.35277 | 11.78285 | 1473 ft | 2 kts | 81° |
| 2026-05-06 09:24 | 48.35275 | 11.78264 | 1472 ft | 2 kts | 84° |
| 2026-05-06 09:24 | 48.35273 | 11.78241 | 1471 ft | 2 kts | 83° |
| 2026-05-06 09:24 | 48.35272 | 11.78219 | 1470 ft | 2 kts | 84° |
| 2026-05-06 09:24 | 48.35270 | 11.78197 | 1470 ft | 2 kts | 83° |
| 2026-05-06 09:25 | 48.35268 | 11.78182 | 1469 ft | 0 kts | 104° |
| 2026-05-06 09:25 | 48.35272 | 11.78173 | 1469 ft | 0 kts | 163° |
| 2026-05-06 09:25 | 48.35278 | 11.78172 | 1469 ft | 1 kts | 175° |
| 2026-05-06 09:25 | 48.35280 | 11.78172 | 1469 ft | 0 kts | 174° |
| 2026-05-06 09:27 | 48.35276 | 11.78173 | 1469 ft | 1 kts | 173° |
| 2026-05-06 09:27 | 48.35241 | 11.78179 | 1469 ft | 8 kts | 173° |
| 2026-05-06 09:28 | 48.35225 | 11.78181 | 1469 ft | 5 kts | 173° |
| 2026-05-06 09:28 | 48.35152 | 11.78192 | 1469 ft | 15 kts | 174° |
| 2026-05-06 09:28 | 48.35010 | 11.78218 | 1469 ft | 24 kts | 174° |
| 2026-05-06 09:28 | 48.34880 | 11.78132 | 1468 ft | 22 kts | 262° |
| 2026-05-06 09:29 | 48.34860 | 11.77923 | 1468 ft | 17 kts | 241° |
| 2026-05-06 09:29 | 48.34764 | 11.77890 | 1468 ft | 14 kts | 173° |
| 2026-05-06 09:29 | 48.34675 | 11.77875 | 1468 ft | 12 kts | 220° |
| 2026-05-06 09:29 | 48.34652 | 11.77749 | 1470 ft | 12 kts | 265° |
| 2026-05-06 09:30 | 48.34642 | 11.77610 | 1472 ft | 14 kts | 263° |
| 2026-05-06 09:30 | 48.34629 | 11.77440 | 1472 ft | 18 kts | 264° |
| 2026-05-06 09:30 | 48.34614 | 11.77236 | 1472 ft | 21 kts | 264° |
| 2026-05-06 09:30 | 48.34595 | 11.76998 | 1472 ft | 24 kts | 263° |
| 2026-05-06 09:31 | 48.34575 | 11.76727 | 1473 ft | 27 kts | 263° |
| 2026-05-06 09:31 | 48.34552 | 11.76441 | 1478 ft | 28 kts | 264° |
| 2026-05-06 09:31 | 48.34529 | 11.76140 | 1482 ft | 29 kts | 263° |
| 2026-05-06 09:31 | 48.34504 | 11.75814 | 1481 ft | 32 kts | 264° |
| 2026-05-06 09:32 | 48.34476 | 11.75459 | 1483 ft | 34 kts | 263° |
| 2026-05-06 09:32 | 48.34447 | 11.75099 | 1487 ft | 34 kts | 258° |
| 2026-05-06 09:32 | 48.34286 | 11.74918 | 1484 ft | 29 kts | 174° |
| 2026-05-06 09:32 | 48.34132 | 11.75063 | 1482 ft | 25 kts | 127° |
| 2026-05-06 09:33 | 48.34080 | 11.75275 | 1481 ft | 19 kts | 83° |
| 2026-05-06 09:33 | 48.34111 | 11.75678 | 1482 ft | 78 kts | 83° |
| 2026-05-06 09:33 | 48.34213 | 11.76956 | 1499 ft | 163 kts | 83° |
| 2026-05-06 09:33 | 48.34375 | 11.78775 | 2156 ft | 189 kts | 81° |
| 2026-05-06 09:34 | 48.34606 | 11.80813 | 2913 ft | 210 kts | 81° |
| 2026-05-06 09:34 | 48.34740 | 11.83002 | 3963 ft | 218 kts | 85° |
| 2026-05-06 09:34 | 48.34864 | 11.85312 | 4852 ft | 240 kts | 83° |
| 2026-05-06 09:34 | 48.35044 | 11.87834 | 6007 ft | 249 kts | 82° |
| 2026-05-06 09:35 | 48.35236 | 11.90414 | 7229 ft | 257 kts | 82° |
| 2026-05-06 09:35 | 48.35254 | 11.93122 | 8383 ft | 266 kts | 101° |
| 2026-05-06 09:35 | 48.34681 | 11.95751 | 9414 ft | 279 kts | 114° |
| 2026-05-06 09:35 | 48.33862 | 11.98582 | 10022 ft | 307 kts | 116° |
| 2026-05-06 09:36 | 48.33018 | 12.01472 | 11323 ft | 309 kts | 117° |
| 2026-05-06 09:36 | 48.32150 | 12.04423 | 12573 ft | 312 kts | 118° |
| 2026-05-06 09:36 | 48.31271 | 12.07391 | 13577 ft | 321 kts | 118° |
| 2026-05-06 09:36 | 48.30358 | 12.10485 | 14587 ft | 329 kts | 118° |
| 2026-05-06 09:37 | 48.29432 | 12.13621 | 15555 ft | 336 kts | 118° |
| 2026-05-06 09:37 | 48.28472 | 12.16869 | 16490 ft | 344 kts | 118° |
| 2026-05-06 09:37 | 48.27500 | 12.20154 | 17381 ft | 352 kts | 118° |
| 2026-05-06 09:37 | 48.26500 | 12.23528 | 18247 ft | 360 kts | 118° |
| 2026-05-06 09:38 | 48.25483 | 12.26968 | 19039 ft | 369 kts | 117° |
| 2026-05-06 09:38 | 48.24722 | 12.30850 | 19016 ft | 409 kts | 101° |
| 2026-05-06 09:38 | 48.24582 | 12.35234 | 19426 ft | 430 kts | 89° |
| 2026-05-06 09:38 | 48.24994 | 12.39681 | 20230 ft | 438 kts | 74° |
| 2026-05-06 09:39 | 48.26096 | 12.43942 | 21065 ft | 440 kts | 59° |
| 2026-05-06 09:39 | 48.27789 | 12.47686 | 21862 ft | 439 kts | 44° |
| 2026-05-06 09:39 | 48.29974 | 12.50810 | 22684 ft | 434 kts | 36° |
| 2026-05-06 09:39 | 48.31986 | 12.54240 | 22916 ft | 452 kts | 50° |
| 2026-05-06 09:40 | 48.33534 | 12.58464 | 22963 ft | 471 kts | 61° |
| 2026-05-06 09:40 | 48.35030 | 12.62834 | 22951 ft | 469 kts | 57° |
| 2026-05-06 09:40 | 48.38310 | 12.71284 | 22906 ft | 463 kts | 53° |
| 2026-05-06 09:41 | 48.39761 | 12.75617 | 22905 ft | 470 kts | 67° |
| 2026-05-06 09:41 | 48.40539 | 12.80386 | 22907 ft | 474 kts | 81° |
| 2026-05-06 09:41 | 48.40630 | 12.85314 | 22915 ft | 475 kts | 92° |
| 2026-05-06 09:41 | 48.40657 | 12.90261 | 22911 ft | 475 kts | 87° |
| 2026-05-06 09:42 | 48.40864 | 12.95215 | 22911 ft | 475 kts | 85° |
| 2026-05-06 09:42 | 48.41123 | 13.00201 | 22911 ft | 474 kts | 84° |
| 2026-05-06 09:42 | 48.41385 | 13.05090 | 22912 ft | 473 kts | 83° |
| 2026-05-06 09:42 | 48.41651 | 13.10005 | 22913 ft | 470 kts | 82° |
| 2026-05-06 09:43 | 48.41917 | 13.14912 | 22915 ft | 467 kts | 81° |
| 2026-05-06 09:43 | 48.42178 | 13.19762 | 22917 ft | 463 kts | 80° |
| 2026-05-06 09:43 | 48.42437 | 13.24511 | 22919 ft | 461 kts | 80° |
| 2026-05-06 09:43 | 48.42698 | 13.29329 | 22921 ft | 462 kts | 80° |
| 2026-05-06 09:44 | 48.42954 | 13.34166 | 22926 ft | 462 kts | 80° |
| 2026-05-06 09:44 | 48.43203 | 13.38941 | 22931 ft | 462 kts | 80° |
| 2026-05-06 09:44 | 48.43451 | 13.43740 | 22937 ft | 462 kts | 80° |
| 2026-05-06 09:44 | 48.43699 | 13.48566 | 22943 ft | 462 kts | 80° |
| 2026-05-06 09:45 | 48.43944 | 13.53386 | 22951 ft | 462 kts | 80° |
| 2026-05-06 09:45 | 48.44187 | 13.58220 | 22959 ft | 462 kts | 80° |
| 2026-05-06 09:45 | 48.44429 | 13.63050 | 22968 ft | 461 kts | 80° |
| 2026-05-06 09:45 | 48.44667 | 13.67842 | 22970 ft | 462 kts | 81° |
| 2026-05-06 09:46 | 48.44905 | 13.72663 | 22967 ft | 462 kts | 81° |
| 2026-05-06 09:46 | 48.45139 | 13.77478 | 22964 ft | 462 kts | 81° |
| 2026-05-06 09:46 | 48.45376 | 13.82382 | 22962 ft | 462 kts | 81° |
| 2026-05-06 09:46 | 48.48686 | 14.56290 | 23258 ft | 463 kts | 81° |
| 2026-05-06 09:47 | 48.49061 | 14.65287 | 23295 ft | 464 kts | 82° |
| 2026-05-06 09:47 | 48.49662 | 14.80076 | 22955 ft | 463 kts | 82° |
| 2026-05-06 09:47 | 48.49849 | 14.84840 | 22398 ft | 454 kts | 82° |
| 2026-05-06 09:47 | 48.50031 | 14.89558 | 21855 ft | 446 kts | 82° |
| 2026-05-06 09:48 | 48.50207 | 14.94152 | 21334 ft | 438 kts | 82° |
| 2026-05-06 09:48 | 48.50381 | 14.98691 | 20825 ft | 431 kts | 82° |
| 2026-05-06 09:48 | 48.50550 | 15.03181 | 20331 ft | 427 kts | 82° |
| 2026-05-06 09:48 | 48.50718 | 15.07642 | 19844 ft | 424 kts | 83° |
| 2026-05-06 09:49 | 48.50880 | 15.12009 | 19368 ft | 420 kts | 83° |
| 2026-05-06 09:49 | 48.51040 | 15.16376 | 18895 ft | 416 kts | 83° |
| 2026-05-06 09:49 | 48.51198 | 15.20726 | 18427 ft | 412 kts | 83° |
| 2026-05-06 09:49 | 48.51351 | 15.25026 | 17968 ft | 409 kts | 84° |
| 2026-05-06 09:50 | 48.51501 | 15.29243 | 17522 ft | 405 kts | 84° |
| 2026-05-06 09:50 | 48.51649 | 15.33461 | 17079 ft | 401 kts | 84° |
| 2026-05-06 09:50 | 48.51793 | 15.37611 | 16647 ft | 398 kts | 84° |
| 2026-05-06 09:50 | 48.51909 | 15.41761 | 16215 ft | 395 kts | 89° |
| 2026-05-06 09:51 | 48.51619 | 15.45870 | 15787 ft | 393 kts | 97° |
| 2026-05-06 09:51 | 48.51141 | 15.49875 | 15362 ft | 390 kts | 99° |
| 2026-05-06 09:51 | 48.50607 | 15.53850 | 14940 ft | 386 kts | 100° |
| 2026-05-06 09:51 | 48.50056 | 15.57817 | 14520 ft | 382 kts | 101° |
| 2026-05-06 09:52 | 48.49515 | 15.61663 | 14114 ft | 378 kts | 101° |
| 2026-05-06 09:52 | 48.48971 | 15.65517 | 13707 ft | 374 kts | 102° |
| 2026-05-06 09:52 | 48.48426 | 15.69356 | 13297 ft | 370 kts | 102° |
| 2026-05-06 09:52 | 48.47895 | 15.73091 | 12898 ft | 367 kts | 102° |
| 2026-05-06 09:53 | 48.47360 | 15.76842 | 12504 ft | 363 kts | 102° |
| 2026-05-06 09:53 | 48.46829 | 15.80551 | 12117 ft | 359 kts | 102° |
| 2026-05-06 09:53 | 48.46308 | 15.84185 | 11743 ft | 356 kts | 102° |
| 2026-05-06 09:53 | 48.45786 | 15.87829 | 11369 ft | 355 kts | 102° |
| 2026-05-06 09:54 | 48.45263 | 15.91457 | 10995 ft | 353 kts | 102° |
| 2026-05-06 09:54 | 48.44743 | 15.95060 | 10622 ft | 352 kts | 103° |
| 2026-05-06 09:54 | 48.44230 | 15.98606 | 10253 ft | 349 kts | 103° |
| 2026-05-06 09:54 | 48.43713 | 16.02170 | 9877 ft | 344 kts | 103° |
| 2026-05-06 09:55 | 48.43210 | 16.05638 | 9508 ft | 336 kts | 103° |
| 2026-05-06 09:55 | 48.42718 | 16.09017 | 9150 ft | 328 kts | 103° |
| 2026-05-06 09:55 | 48.42235 | 16.12326 | 8798 ft | 321 kts | 103° |
| 2026-05-06 09:55 | 48.41762 | 16.15561 | 8451 ft | 315 kts | 103° |
| 2026-05-06 09:56 | 48.41289 | 16.18780 | 8102 ft | 309 kts | 104° |
| 2026-05-06 09:56 | 48.40830 | 16.21908 | 7762 ft | 304 kts | 104° |
| 2026-05-06 09:56 | 48.40377 | 16.24976 | 7424 ft | 300 kts | 104° |
| 2026-05-06 09:56 | 48.39930 | 16.28012 | 7087 ft | 296 kts | 104° |
| 2026-05-06 09:57 | 48.39485 | 16.31020 | 6750 ft | 292 kts | 104° |
| 2026-05-06 09:57 | 48.39051 | 16.33957 | 6420 ft | 288 kts | 104° |
| 2026-05-06 09:57 | 48.38617 | 16.36881 | 6094 ft | 285 kts | 104° |
| 2026-05-06 09:57 | 48.38188 | 16.39765 | 5774 ft | 281 kts | 104° |
| 2026-05-06 09:58 | 48.37745 | 16.42617 | 5265 ft | 286 kts | 108° |
| 2026-05-06 09:58 | 48.36765 | 16.45143 | 5004 ft | 272 kts | 134° |
| 2026-05-06 09:58 | 48.35471 | 16.47083 | 4986 ft | 256 kts | 139° |
| 2026-05-06 09:58 | 48.34002 | 16.48409 | 4973 ft | 238 kts | 162° |
| 2026-05-06 09:59 | 48.32438 | 16.49116 | 4716 ft | 237 kts | 165° |
| 2026-05-06 09:59 | 48.30855 | 16.49796 | 4417 ft | 237 kts | 165° |
| 2026-05-06 09:59 | 48.29268 | 16.50470 | 4117 ft | 237 kts | 165° |
| 2026-05-06 09:59 | 48.27698 | 16.51148 | 3813 ft | 237 kts | 165° |
| 2026-05-06 10:00 | 48.26101 | 16.51820 | 3497 ft | 237 kts | 165° |
| 2026-05-06 10:00 | 48.24533 | 16.52491 | 3207 ft | 235 kts | 164° |
| 2026-05-06 10:00 | 48.22984 | 16.53151 | 2881 ft | 228 kts | 164° |
| 2026-05-06 10:00 | 48.21500 | 16.53783 | 2569 ft | 214 kts | 163° |
| 2026-05-06 10:01 | 48.20110 | 16.54380 | 2258 ft | 203 kts | 164° |
| 2026-05-06 10:01 | 48.18789 | 16.54933 | 1972 ft | 194 kts | 164° |
| 2026-05-06 10:01 | 48.17538 | 16.55471 | 1733 ft | 181 kts | 163° |
| 2026-05-06 10:01 | 48.16374 | 16.55964 | 1485 ft | 168 kts | 163° |
| 2026-05-06 10:02 | 48.15292 | 16.56416 | 1262 ft | 154 kts | 163° |
| 2026-05-06 10:02 | 48.14307 | 16.56834 | 1068 ft | 140 kts | 163° |
| 2026-05-06 10:02 | 48.13430 | 16.57201 | 898 ft | 122 kts | 163° |
| 2026-05-06 10:02 | 48.12670 | 16.57527 | 729 ft | 105 kts | 163° |
| 2026-05-06 10:03 | 48.11989 | 16.57824 | 590 ft | 91 kts | 163° |
| 2026-05-06 10:03 | 48.11529 | 16.58015 | 592 ft | 45 kts | 164° |
| 2026-05-06 10:03 | 48.11362 | 16.58085 | 592 ft | 6 kts | 162° |
| 2026-05-06 10:03 | 48.11378 | 16.58077 | 592 ft | 2 kts | 164° |